Aérodrome :
LOGIN :

S'inscrire | Disclaimer

   EN    FR    IT 

 










Légende :    VFR   VFR Marginal   IFR   IFR Intensif   IFR Très Intensif
Visi : 
Plafond : 
>= 8 km
>= 3000ft
5 à 8 km
1000 à 3000 ft
1500m à 5 km
500 à 1000 ft
800 à 1500m
200 à 500 ft
< 800m
< 200 ft
Symboles :   Orages  Brouillard  Fortes neiges  Fortes précipitations  Vent > 20 kt
SIGMETs :   Divers  Orages  Givrage  Turbulence  Onde Orograph.  Cendres Volcan.







- Altitude de l'aérodrome : 55 ft
- Code IATA : DSA
- Voir les cartes d'approche


EGCN - Robin Hood Doncaster Sheffield

METARs EXPIRÉS :
  • 241420Z 27015KT 240V300 9999 SCT031 19/11 Q1011
  • 241350Z 27016KT 9999 BKN033 20/12 Q1011
  • 241320Z 24015KT 9999 SCT034 21/12 Q1011
  • 241250Z 25017KT 9999 SCT035 21/12 Q1011
  • 241220Z 27017KT 9999 FEW034 21/12 Q1011
  • 241150Z 27017KT 9999 FEW032 21/11 Q1011

TAF TAF EGCN
Valide du 24 à 12h jusqu'au 25 à 12h UTC


241058Z 2412/2512 25014KT 9999 BKN030
PROB30
TEMPO 2412/2416 26017G27KT 6000 -RADZ
PROB30
TEMPO 2506/2510 6000 -RADZ BKN012
Pas de NOTAMs connus pour ce terrain.



MET'MAP, la Météo Aéronautique d'un coup d'oeil ! - Copyright ORBIFLY Décembre 2007 - Disclaimer

ORBIFLY MET'MAP TEAM :

Programmation & Développement : Alexandra Zaïnal
Conception & Développement : Baudouin d'Aumeries
Co-Programmation & Développement : Marc-Olivier Méhu
Soutien technique & logistique : Manuel Goepfert

Contact : metmap@orbifly.com




SOURCES & CREDITS :

   NOAA